Time;durP1;ratioP1;P1;durP2;ratioP2;P2;SDS_P1;SDS_P2;PMS_P1;PMS_P2;Temp;Humidity;BMP_temperature;BMP_pressure;BME280_temperature;BME280_humidity;BME280_pressure;Samples;Min_cycle;Max_cycle;Signal;HPM_P1;HPM_P2
2021/03/01 00:00:41;;;;;;;33.20;14.07;;;3.30;99.90;;;;;;5047083;28;20571;-67
2021/03/01 00:03:08;;;;;;;31.07;11.53;;;3.40;99.90;;;;;;5047696;28;20044;-67
2021/03/01 00:05:34;;;;;;;29.47;13.67;;;3.40;99.90;;;;;;5049415;28;20052;-67
2021/03/01 00:08:01;;;;;;;28.17;12.50;;;3.40;99.90;;;;;;5048144;28;20052;-67
2021/03/01 00:10:28;;;;;;;30.50;12.83;;;3.30;99.90;;;;;;5047947;28;20497;-68
2021/03/01 00:12:54;;;;;;;31.87;12.57;;;3.40;99.90;;;;;;5047454;28;20056;-67
2021/03/01 00:15:23;;;;;;;24.20;10.50;;;3.40;99.90;;;;;;5048038;28;20041;-68
2021/03/01 00:17:50;;;;;;;22.80;9.77;;;3.50;99.90;;;;;;5048294;28;20068;-67
2021/03/01 00:20:17;;;;;;;24.77;10.23;;;3.40;99.90;;;;;;5048775;28;20048;-67
2021/03/01 00:22:45;;;;;;;21.03;10.00;;;3.30;99.90;;;;;;5046774;28;21041;-67
2021/03/01 00:25:13;;;;;;;22.70;9.97;;;3.20;99.90;;;;;;5047880;28;20045;-68
2021/03/01 00:27:40;;;;;;;23.03;9.10;;;3.30;99.90;;;;;;5047773;28;20052;-67
2021/03/01 00:30:09;;;;;;;24.00;11.10;;;3.30;99.90;;;;;;5043589;28;20486;-68
2021/03/01 00:32:37;;;;;;;21.73;9.90;;;3.30;99.90;;;;;;5040861;28;20096;-69
2021/03/01 00:35:06;;;;;;;27.20;10.23;;;3.30;99.90;;;;;;5039995;28;20516;-69
2021/03/01 00:37:32;;;;;;;22.73;10.17;;;3.30;99.90;;;;;;5044916;28;20056;-69
2021/03/01 00:39:59;;;;;;;22.77;10.73;;;3.30;99.90;;;;;;5046251;28;20044;-69
2021/03/01 00:42:25;;;;;;;24.07;10.43;;;3.50;99.90;;;;;;5048204;28;20041;-69
2021/03/01 00:44:52;;;;;;;22.87;10.00;;;3.40;99.90;;;;;;5051519;28;20480;-69
2021/03/01 00:47:18;;;;;;;25.33;10.33;;;3.40;99.90;;;;;;5050826;28;20456;-69
2021/03/01 00:49:45;;;;;;;22.57;10.83;;;3.30;99.90;;;;;;5052409;28;20111;-69
2021/03/01 00:52:13;;;;;;;22.20;10.60;;;3.20;99.90;;;;;;5051699;28;20056;-69
2021/03/01 00:54:39;;;;;;;23.77;11.77;;;3.20;99.90;;;;;;5052058;28;20052;-69
2021/03/01 00:57:06;;;;;;;24.90;10.93;;;3.30;99.90;;;;;;5052653;28;20790;-69
2021/03/01 00:59:33;;;;;;;23.90;10.57;;;3.10;99.90;;;;;;5052435;28;20505;-69
2021/03/01 01:02:00;;;;;;;25.93;11.27;;;3.10;99.90;;;;;;5053450;28;20478;-69
2021/03/01 01:04:26;;;;;;;23.67;10.67;;;3.00;99.90;;;;;;5053523;28;20040;-69
2021/03/01 01:06:53;;;;;;;23.03;11.03;;;3.00;99.90;;;;;;5054079;28;20057;-69
2021/03/01 01:09:20;;;;;;;26.97;11.63;;;3.00;99.90;;;;;;5070796;28;20041;-69
2021/03/01 01:11:47;;;;;;;28.63;12.00;;;3.00;99.90;;;;;;5077525;28;20064;-69
2021/03/01 01:14:14;;;;;;;26.63;11.57;;;3.00;99.90;;;;;;5070858;28;20052;-69
2021/03/01 01:16:40;;;;;;;29.00;11.53;;;3.00;99.90;;;;;;5056004;28;20102;-69
2021/03/01 01:19:07;;;;;;;27.27;10.97;;;3.10;99.90;;;;;;5050969;28;20055;-69
2021/03/01 01:21:34;;;;;;;27.23;13.17;;;3.10;99.90;;;;;;5048663;28;20056;-71
2021/03/01 01:24:00;;;;;;;29.10;13.13;;;3.10;99.90;;;;;;5046825;28;20052;-69
2021/03/01 01:26:28;;;;;;;30.57;13.07;;;3.00;99.90;;;;;;5048383;28;20574;-69
2021/03/01 01:28:55;;;;;;;30.03;13.73;;;3.00;99.90;;;;;;5048630;28;20389;-69
2021/03/01 01:31:21;;;;;;;29.17;13.67;;;3.00;99.90;;;;;;5051120;28;20076;-69
2021/03/01 01:33:48;;;;;;;30.07;12.23;;;2.90;99.90;;;;;;5046873;28;20044;-69
2021/03/01 01:36:14;;;;;;;27.33;12.33;;;2.90;99.90;;;;;;5046864;28;20044;-69
2021/03/01 01:38:41;;;;;;;30.10;13.63;;;2.90;99.90;;;;;;5041446;28;20200;-69
2021/03/01 01:41:07;;;;;;;26.27;12.53;;;2.80;99.90;;;;;;5044288;28;20091;-69
2021/03/01 01:43:35;;;;;;;30.97;12.57;;;2.80;99.90;;;;;;5045914;28;20071;-69
2021/03/01 01:46:01;;;;;;;30.30;13.10;;;2.80;99.90;;;;;;5047288;28;20800;-69
2021/03/01 01:48:28;;;;;;;28.17;13.70;;;2.70;99.90;;;;;;5048693;28;20045;-69
2021/03/01 01:50:54;;;;;;;30.40;12.90;;;2.70;99.90;;;;;;5048067;28;20497;-69
2021/03/01 01:53:21;;;;;;;28.47;13.30;;;2.70;99.90;;;;;;5046441;28;20443;-69
2021/03/01 01:55:47;;;;;;;29.07;13.43;;;2.70;99.90;;;;;;5047923;28;20410;-69
2021/03/01 01:58:14;;;;;;;30.60;14.20;;;2.70;99.90;;;;;;5048083;28;20048;-69
2021/03/01 02:00:45;;;;;;;32.00;13.37;;;2.60;99.90;;;;;;5048478;28;20126;-69
2021/03/01 02:03:34;;;;;;;28.70;13.50;;;2.60;99.90;;;;;;5047289;28;20048;-69
2021/03/01 02:06:04;;;;;;;34.07;14.23;;;2.60;99.90;;;;;;5047816;28;20447;-69
2021/03/01 02:08:37;;;;;;;37.30;14.80;;;2.60;99.90;;;;;;5047456;28;20056;-69
2021/03/01 02:11:11;;;;;;;31.27;14.17;;;2.60;99.90;;;;;;5048237;28;20045;-69
2021/03/01 02:13:45;;;;;;;28.87;12.77;;;2.60;99.90;;;;;;5050839;28;20063;-69
2021/03/01 02:16:17;;;;;;;28.93;13.97;;;2.50;99.90;;;;;;5050100;28;20052;-69
2021/03/01 02:18:45;;;;;;;32.83;14.10;;;2.70;99.90;;;;;;5052490;28;20060;-69
2021/03/01 02:21:14;;;;;;;37.10;15.13;;;2.60;99.90;;;;;;5052141;28;20093;-69
2021/03/01 02:23:43;;;;;;;33.77;14.50;;;2.60;99.90;;;;;;5052722;28;20547;-69
2021/03/01 02:26:13;;;;;;;39.10;16.10;;;2.50;99.90;;;;;;5051733;28;20048;-69
2021/03/01 02:28:44;;;;;;;34.10;14.50;;;2.60;99.90;;;;;;5051050;28;20048;-69
2021/03/01 02:31:12;;;;;;;33.23;14.40;;;2.60;99.90;;;;;;5054195;28;20075;-69
2021/03/01 02:33:43;;;;;;;31.10;14.93;;;2.50;99.90;;;;;;5052519;28;20052;-69
2021/03/01 02:36:15;;;;;;;34.17;14.73;;;2.50;99.90;;;;;;5052991;28;20098;-68
2021/03/01 02:38:44;;;;;;;35.97;16.13;;;2.50;99.90;;;;;;5052598;28;20091;-69
2021/03/01 02:41:12;;;;;;;33.80;14.07;;;2.50;99.90;;;;;;5052268;28;20056;-69
2021/03/01 02:43:40;;;;;;;39.47;14.70;;;2.30;99.90;;;;;;5050091;28;20052;-69
2021/03/01 02:46:07;;;;;;;38.30;16.33;;;2.30;99.90;;;;;;5050855;28;20093;-69
2021/03/01 02:48:36;;;;;;;34.23;15.77;;;2.20;99.90;;;;;;5051397;28;20580;-69
2021/03/01 02:51:05;;;;;;;32.53;15.13;;;2.20;99.90;;;;;;5050505;28;20129;-69
2021/03/01 02:53:33;;;;;;;34.47;16.53;;;2.20;99.90;;;;;;5050321;28;20111;-69
2021/03/01 02:56:00;;;;;;;44.57;17.13;;;2.30;99.90;;;;;;5051505;28;20052;-69
2021/03/01 02:58:29;;;;;;;38.87;16.90;;;2.40;99.90;;;;;;5051669;28;20127;-69
2021/03/01 03:00:57;;;;;;;40.80;16.87;;;2.40;99.90;;;;;;5050550;28;20051;-69
2021/03/01 03:03:25;;;;;;;40.53;18.03;;;2.40;99.90;;;;;;5049984;28;20056;-69
2021/03/01 03:05:53;;;;;;;40.00;17.60;;;2.40;99.90;;;;;;5051302;28;20064;-69
2021/03/01 03:08:20;;;;;;;42.87;16.67;;;2.30;99.90;;;;;;5051724;28;20582;-69
2021/03/01 03:10:49;;;;;;;40.63;16.47;;;2.30;99.90;;;;;;5050983;28;20048;-69
2021/03/01 03:13:19;;;;;;;41.17;17.93;;;2.30;99.90;;;;;;5049625;28;20429;-69
2021/03/01 03:15:46;;;;;;;43.37;18.10;;;2.20;99.90;;;;;;5050539;28;20363;-69
2021/03/01 03:18:14;;;;;;;44.07;17.37;;;2.20;99.90;;;;;;5050833;28;20055;-69
2021/03/01 03:20:41;;;;;;;39.43;17.10;;;2.20;99.90;;;;;;5050374;28;20059;-69
2021/03/01 03:23:08;;;;;;;41.33;18.23;;;2.10;99.90;;;;;;5049110;28;20049;-69
2021/03/01 03:25:35;;;;;;;41.77;17.33;;;2.00;99.90;;;;;;5050056;28;20044;-69
2021/03/01 03:28:03;;;;;;;44.57;18.17;;;2.10;99.90;;;;;;5050103;28;20049;-69
2021/03/01 03:30:31;;;;;;;44.70;18.63;;;2.00;99.90;;;;;;5050465;28;20052;-69
2021/03/01 03:32:58;;;;;;;43.90;18.33;;;2.10;99.90;;;;;;5048895;28;20133;-69
2021/03/01 03:35:25;;;;;;;42.40;18.37;;;2.20;99.90;;;;;;5049540;28;20055;-69
2021/03/01 03:37:57;;;;;;;47.37;18.67;;;2.10;99.90;;;;;;5049964;28;20053;-69
2021/03/01 03:40:26;;;;;;;47.83;18.30;;;2.00;99.90;;;;;;5049910;28;20060;-68
2021/03/01 03:42:54;;;;;;;50.17;19.80;;;2.00;99.90;;;;;;5048513;28;20040;-69
2021/03/01 03:45:21;;;;;;;46.87;20.13;;;2.20;99.90;;;;;;5049508;28;20049;-69
2021/03/01 03:47:50;;;;;;;45.97;18.83;;;2.10;99.90;;;;;;5048846;28;20528;-69
2021/03/01 03:50:18;;;;;;;48.00;20.13;;;2.10;99.90;;;;;;5049402;28;20059;-69
2021/03/01 03:52:47;;;;;;;48.77;20.07;;;2.00;99.90;;;;;;5049633;28;20048;-69
2021/03/01 03:55:17;;;;;;;42.77;18.87;;;2.10;99.90;;;;;;5050274;28;20106;-69
2021/03/01 03:57:47;;;;;;;50.30;19.20;;;2.10;99.90;;;;;;5051019;28;20056;-69
2021/03/01 04:00:15;;;;;;;49.20;21.03;;;2.10;99.90;;;;;;5050766;28;20053;-69
2021/03/01 04:02:43;;;;;;;46.40;20.20;;;2.10;99.90;;;;;;5049518;28;20048;-69
2021/03/01 04:05:14;;;;;;;50.00;20.30;;;2.20;99.90;;;;;;5050777;28;20497;-69
2021/03/01 04:07:43;;;;;;;50.73;19.50;;;2.10;99.90;;;;;;5050740;28;20393;-69
2021/03/01 04:10:11;;;;;;;51.63;21.00;;;2.20;99.90;;;;;;5050593;28;20054;-69
2021/03/01 04:12:39;;;;;;;52.70;20.73;;;2.20;99.90;;;;;;5049319;28;20044;-69
2021/03/01 04:15:08;;;;;;;53.43;20.10;;;2.20;99.90;;;;;;5049272;28;20496;-69
2021/03/01 04:17:36;;;;;;;54.87;21.87;;;2.10;99.90;;;;;;5049052;28;20048;-69
2021/03/01 04:20:05;;;;;;;51.10;21.13;;;2.10;99.90;;;;;;5049392;28;20056;-68
2021/03/01 04:22:34;;;;;;;52.83;20.80;;;2.10;99.90;;;;;;5049297;28;20044;-69
2021/03/01 04:25:01;;;;;;;54.27;21.70;;;2.00;99.90;;;;;;5049270;28;20056;-69
2021/03/01 04:27:29;;;;;;;50.17;20.87;;;1.90;99.90;;;;;;5048509;28;20044;-69
2021/03/01 04:29:58;;;;;;;55.67;22.43;;;1.70;99.90;;;;;;5049027;28;20048;-69
2021/03/01 04:32:25;;;;;;;49.03;20.73;;;1.60;99.90;;;;;;5046818;28;20055;-69
2021/03/01 04:34:52;;;;;;;57.90;22.13;;;1.70;99.90;;;;;;5048148;28;20102;-69
2021/03/01 04:37:19;;;;;;;53.67;21.47;;;1.80;99.90;;;;;;5048590;28;20558;-69
2021/03/01 04:39:46;;;;;;;53.93;22.07;;;1.80;99.90;;;;;;5049148;28;20181;-69
2021/03/01 04:42:14;;;;;;;56.77;21.60;;;1.60;99.90;;;;;;5048537;28;20721;-69
2021/03/01 04:44:41;;;;;;;58.13;22.60;;;1.60;99.90;;;;;;5048161;28;20044;-69
2021/03/01 04:47:09;;;;;;;62.73;22.60;;;1.60;99.90;;;;;;5049354;28;20103;-69
2021/03/01 04:49:38;;;;;;;58.80;22.53;;;1.50;99.90;;;;;;5049319;28;20501;-68
2021/03/01 04:52:05;;;;;;;65.30;22.57;;;1.60;99.90;;;;;;5049061;28;20049;-69
2021/03/01 04:54:33;;;;;;;56.03;21.57;;;1.60;99.90;;;;;;5048691;28;20056;-69
2021/03/01 04:57:01;;;;;;;53.60;21.47;;;1.50;99.90;;;;;;5049008;28;20052;-69
2021/03/01 04:59:27;;;;;;;53.13;21.17;;;1.50;99.90;;;;;;5050562;28;20093;-69
2021/03/01 05:01:55;;;;;;;52.33;21.57;;;1.40;99.90;;;;;;5049672;28;20098;-69
2021/03/01 05:04:21;;;;;;;47.57;19.03;;;1.40;99.90;;;;;;5048926;28;20052;-69
2021/03/01 05:06:48;;;;;;;48.43;17.53;;;1.30;99.90;;;;;;5048839;28;20048;-69
2021/03/01 05:09:16;;;;;;;43.57;17.80;;;1.30;99.90;;;;;;5048543;28;20091;-69
2021/03/01 05:11:42;;;;;;;50.07;18.53;;;1.40;99.90;;;;;;5049823;28;20052;-69
2021/03/01 05:14:10;;;;;;;42.40;16.60;;;1.40;99.90;;;;;;5048459;28;20134;-69
2021/03/01 05:16:36;;;;;;;44.47;17.90;;;1.30;99.90;;;;;;5049122;28;20053;-69
2021/03/01 05:19:04;;;;;;;42.23;17.87;;;1.30;99.90;;;;;;5051039;28;20448;-69
2021/03/01 05:21:31;;;;;;;45.20;16.47;;;1.20;99.90;;;;;;5049625;28;20044;-69
2021/03/01 05:23:57;;;;;;;46.00;17.90;;;1.20;99.90;;;;;;5049569;28;20064;-69
2021/03/01 05:26:24;;;;;;;48.60;19.80;;;1.10;99.90;;;;;;5049526;28;20059;-69
2021/03/01 05:28:50;;;;;;;51.83;20.80;;;1.20;99.90;;;;;;5049274;28;20048;-69
2021/03/01 05:31:18;;;;;;;59.07;21.50;;;1.20;99.90;;;;;;5049607;28;20350;-69
2021/03/01 05:33:45;;;;;;;60.03;23.57;;;1.30;99.90;;;;;;5049400;28;20049;-69
2021/03/01 05:36:12;;;;;;;64.13;22.17;;;1.40;99.90;;;;;;5049402;28;20083;-69
2021/03/01 05:38:39;;;;;;;54.73;21.60;;;1.30;99.90;;;;;;5051042;28;20062;-69
2021/03/01 05:41:08;;;;;;;57.73;22.43;;;1.10;99.90;;;;;;5052871;28;20749;-69
2021/03/01 05:43:35;;;;;;;51.33;20.53;;;1.10;99.90;;;;;;5053382;28;20045;-69
2021/03/01 05:46:02;;;;;;;58.80;22.67;;;1.10;99.90;;;;;;5054835;28;20080;-69
2021/03/01 05:48:29;;;;;;;68.30;25.00;;;1.10;99.90;;;;;;5057582;28;20053;-69
2021/03/01 05:50:58;;;;;;;62.23;23.60;;;1.30;99.90;;;;;;5057530;28;20053;-69
2021/03/01 05:53:28;;;;;;;59.50;21.77;;;1.40;99.90;;;;;;5057036;28;20099;-69
2021/03/01 05:55:57;;;;;;;67.13;22.77;;;1.30;99.90;;;;;;5057745;28;20048;-69
2021/03/01 05:58:25;;;;;;;59.37;23.20;;;1.50;99.90;;;;;;5057203;28;20048;-69
2021/03/01 06:00:53;;;;;;;61.70;22.50;;;1.30;99.90;;;;;;5057474;28;20049;-69
2021/03/01 06:03:21;;;;;;;67.80;24.77;;;1.30;99.90;;;;;;5056385;28;20567;-69
2021/03/01 06:05:49;;;;;;;60.03;23.33;;;1.30;99.90;;;;;;5057339;28;20049;-69
2021/03/01 06:08:16;;;;;;;68.33;23.23;;;1.50;99.90;;;;;;5052102;28;20053;-69
2021/03/01 06:10:43;;;;;;;65.60;23.93;;;1.50;99.90;;;;;;5052675;28;20049;-69
2021/03/01 06:13:09;;;;;;;68.30;23.47;;;1.50;99.90;;;;;;5051153;28;20052;-69
2021/03/01 06:15:37;;;;;;;68.40;24.97;;;1.40;99.90;;;;;;5053358;28;20098;-69
2021/03/01 06:18:08;;;;;;;71.20;22.97;;;1.30;99.90;;;;;;5052818;28;20063;-69
2021/03/01 06:20:35;;;;;;;73.37;24.87;;;1.50;99.90;;;;;;5053087;28;20318;-69
2021/03/01 06:23:03;;;;;;;66.63;24.60;;;1.50;99.90;;;;;;5052962;28;20117;-69
2021/03/01 06:25:30;;;;;;;68.53;24.73;;;1.50;99.90;;;;;;5054727;28;20052;-69
2021/03/01 06:27:59;;;;;;;81.60;24.77;;;1.70;99.90;;;;;;5052263;28;20150;-69
2021/03/01 06:30:27;;;;;;;64.40;22.27;;;1.70;99.90;;;;;;5052946;28;20056;-69
2021/03/01 06:33:06;;;;;;;62.10;21.87;;;1.60;99.90;;;;;;5051901;28;20052;-69
2021/03/01 06:35:33;;;;;;;65.97;23.83;;;1.60;99.90;;;;;;5052014;28;20511;-69
2021/03/01 06:38:18;;;;;;;57.83;21.40;;;1.60;99.90;;;;;;5052311;28;20113;-68
2021/03/01 06:40:45;;;;;;;59.87;21.67;;;1.50;99.90;;;;;;5045582;28;21027;-69
2021/03/01 06:43:13;;;;;;;62.83;24.00;;;1.60;99.90;;;;;;5056873;28;20048;-69
2021/03/01 06:45:40;;;;;;;57.17;22.53;;;1.60;99.90;;;;;;5057926;28;20060;-69
2021/03/01 06:48:08;;;;;;;63.10;23.67;;;1.60;99.90;;;;;;5059116;28;20056;-69
2021/03/01 06:50:37;;;;;;;58.20;22.37;;;1.70;99.90;;;;;;5057949;28;20578;-69
2021/03/01 06:53:05;;;;;;;62.93;24.50;;;1.60;99.90;;;;;;5056216;28;20060;-69
2021/03/01 06:55:33;;;;;;;60.27;24.13;;;1.70;99.90;;;;;;5056625;28;20060;-69
2021/03/01 06:58:16;;;;;;;59.40;22.87;;;1.70;99.90;;;;;;5056798;28;20497;-69
2021/03/01 07:00:42;;;;;;;66.43;24.00;;;1.80;99.90;;;;;;5057696;28;20048;-69
2021/03/01 07:03:20;;;;;;;53.27;21.10;;;1.80;99.90;;;;;;5054309;28;20477;-68
2021/03/01 07:05:50;;;;;;;57.10;23.50;;;2.10;99.90;;;;;;5056517;28;20505;-69
2021/03/01 07:08:44;;;;;;;66.20;22.37;;;2.20;99.90;;;;;;5052413;28;20150;-69
2021/03/01 07:11:26;;;;;;;56.33;22.40;;;2.20;99.90;;;;;;5051361;28;20052;-69
2021/03/01 07:13:54;;;;;;;58.57;21.57;;;2.20;99.90;;;;;;5052475;28;20053;-69
2021/03/01 07:16:21;;;;;;;59.73;22.37;;;2.20;99.90;;;;;;5051966;28;20102;-69
2021/03/01 07:18:49;;;;;;;61.60;22.93;;;2.30;99.90;;;;;;5049681;28;20060;-69
2021/03/01 07:21:16;;;;;;;53.40;21.07;;;2.40;99.90;;;;;;5051340;28;20528;-72
2021/03/01 07:23:44;;;;;;;59.07;21.43;;;2.30;99.90;;;;;;5055672;28;20244;-70
2021/03/01 07:26:12;;;;;;;49.27;20.13;;;2.50;99.90;;;;;;5054676;28;20048;-70
2021/03/01 07:28:42;;;;;;;54.40;20.77;;;2.60;99.90;;;;;;5052833;28;20052;-68
2021/03/01 07:31:11;;;;;;;54.13;22.53;;;2.60;99.90;;;;;;5051518;28;20055;-68
2021/03/01 07:33:38;;;;;;;54.83;20.90;;;2.80;99.90;;;;;;5049506;28;20060;-68
2021/03/01 07:36:07;;;;;;;53.77;21.43;;;2.80;99.90;;;;;;5048867;28;20048;-69
2021/03/01 07:38:35;;;;;;;51.27;20.83;;;2.90;99.90;;;;;;5047986;28;20114;-69
2021/03/01 07:41:02;;;;;;;56.73;22.80;;;2.90;99.90;;;;;;5051007;28;20040;-69
2021/03/01 07:43:30;;;;;;;50.67;20.43;;;3.00;99.90;;;;;;5047370;28;20117;-69
2021/03/01 07:45:58;;;;;;;54.47;21.50;;;3.20;99.90;;;;;;5049533;28;20136;-69
2021/03/01 07:48:34;;;;;;;46.50;20.13;;;3.20;99.90;;;;;;5052506;28;20075;-70
2021/03/01 07:51:01;;;;;;;44.45;19.05;;;3.30;99.90;;;;;;5050722;28;20099;-68
2021/03/01 07:53:50;;;;;;;42.90;17.50;;;3.40;99.90;;;;;;5050235;28;20052;-69
2021/03/01 07:56:50;;;;;;;48.13;18.40;;;3.40;99.90;;;;;;5050570;28;20044;-70
2021/03/01 07:59:32;;;;;;;45.03;16.93;;;3.60;99.90;;;;;;5050845;28;20053;-69
2021/03/01 08:02:14;;;;;;;43.20;17.87;;;3.60;99.90;;;;;;5051910;28;20445;-69
2021/03/01 08:04:41;;;;;;;46.77;19.07;;;3.60;99.90;;;;;;5052797;28;20488;-70
2021/03/01 08:07:08;;;;;;;42.73;19.47;;;3.70;99.90;;;;;;5054087;28;20079;-69
2021/03/01 08:09:42;;;;;;;45.17;18.40;;;3.90;99.90;;;;;;5054166;28;21034;-70
2021/03/01 08:12:09;;;;;;;44.70;18.57;;;3.90;99.90;;;;;;5051232;28;20131;-70
2021/03/01 08:14:58;;;;;;;41.17;19.23;;;4.20;99.90;;;;;;5052867;28;20078;-70
2021/03/01 08:17:37;;;;;;;40.37;17.80;;;4.30;99.90;;;;;;5054760;28;20055;-70
2021/03/01 08:20:32;;;;;;;37.37;18.70;;;4.50;99.90;;;;;;5054404;28;20110;-70
2021/03/01 08:23:32;;;;;;;37.50;16.87;;;5.00;99.90;;;;;;5036988;28;20056;-70
2021/03/01 08:26:03;;;;;;;32.27;15.60;;;6.10;99.90;;;;;;5054119;28;20044;-70
2021/03/01 08:28:53;;;;;;;32.77;16.33;;;6.70;99.90;;;;;;5053788;28;20049;-70
2021/03/01 08:31:37;;;;;;;30.53;15.17;;;6.90;99.90;;;;;;5054026;28;20121;-71
2021/03/01 08:34:24;;;;;;;32.92;17.25;;;6.90;99.90;;;;;;5053209;28;20056;-70
2021/03/01 08:36:51;;;;;;;33.53;16.58;;;7.00;99.90;;;;;;5052817;28;20048;-70
2021/03/01 08:40:00;;;;;;;37.22;17.98;;;7.10;99.90;;;;;;5047484;28;20052;-70
2021/03/01 08:42:49;;;;;;;33.53;16.70;;;7.10;99.90;;;;;;5052561;28;20098;-70
2021/03/01 08:45:32;;;;;;;35.53;17.35;;;7.30;99.90;;;;;;5051767;28;20059;-68
2021/03/01 08:48:00;;;;;;;33.92;16.00;;;7.50;99.90;;;;;;5050386;28;20538;-69
2021/03/01 08:50:32;;;;;;;32.03;14.32;;;8.10;99.90;;;;;;5053472;28;20056;-69
2021/03/01 08:52:59;;;;;;;30.55;15.02;;;8.80;99.90;;;;;;5052225;28;20063;-68
2021/03/01 08:55:26;;;;;;;30.75;15.18;;;10.10;99.90;;;;;;5054461;28;20048;-67
2021/03/01 08:58:00;;;;;;;30.63;16.73;;;11.10;99.90;;;;;;5053493;28;20059;-68
2021/03/01 09:00:28;;;;;;;34.20;16.58;;;12.30;99.90;;;;;;5053783;28;20044;-69
2021/03/01 09:03:17;;;;;;;24.60;15.77;;;13.30;99.90;;;;;;5047936;28;20119;-71
2021/03/01 09:05:46;;;;;;;25.05;15.55;;;14.30;99.90;;;;;;5053834;28;20489;-72
2021/03/01 09:08:14;;;;;;;25.88;15.90;;;15.20;99.90;;;;;;5052699;28;20048;-71
2021/03/01 09:10:45;;;;;;;25.23;15.13;;;15.80;99.90;;;;;;5051567;28;20456;-71
2021/03/01 09:13:17;;;;;;;26.08;15.77;;;16.10;99.90;;;;;;5049844;28;20102;-70
2021/03/01 09:15:44;;;;;;;24.30;14.75;;;17.00;99.90;;;;;;5052822;28;20095;-72
2021/03/01 09:18:14;;;;;;;25.33;15.80;;;17.50;97.80;;;;;;5052256;28;20048;-71
2021/03/01 09:20:47;;;;;;;22.92;16.08;;;17.90;96.10;;;;;;5051922;28;20060;-72
2021/03/01 09:23:14;;;;;;;23.48;15.60;;;18.40;92.10;;;;;;5049963;28;20059;-71
2021/03/01 09:25:41;;;;;;;23.75;15.63;;;18.90;91.50;;;;;;5051654;28;20461;-70
2021/03/01 09:28:08;;;;;;;22.23;15.23;;;19.40;89.50;;;;;;5051814;28;20058;-69
2021/03/01 09:30:36;;;;;;;23.65;15.43;;;19.60;85.70;;;;;;5052006;28;20440;-68
2021/03/01 09:33:09;;;;;;;22.88;15.48;;;19.90;83.00;;;;;;5051525;28;20044;-68
2021/03/01 09:35:37;;;;;;;22.38;15.50;;;20.00;80.40;;;;;;5051344;28;20135;-70
2021/03/01 09:38:05;;;;;;;22.38;14.88;;;20.10;77.90;;;;;;5052224;28;20044;-67
2021/03/01 09:40:32;;;;;;;22.05;14.93;;;20.50;75.90;;;;;;5051594;28;20041;-68
2021/03/01 09:43:03;;;;;;;21.00;15.18;;;21.00;74.20;;;;;;5051381;28;20048;-68
2021/03/01 09:45:37;;;;;;;21.30;15.43;;;21.00;71.70;;;;;;5048835;28;20072;-70
2021/03/01 09:48:05;;;;;;;21.33;15.32;;;21.30;69.90;;;;;;5044033;28;21158;-67
2021/03/01 09:50:32;;;;;;;23.15;15.52;;;21.30;68.10;;;;;;5048494;28;20067;-69
2021/03/01 09:52:59;;;;;;;20.10;14.63;;;21.40;68.10;;;;;;5050314;28;20063;-68
2021/03/01 09:55:30;;;;;;;19.20;14.48;;;22.10;64.40;;;;;;5051110;28;20416;-68
2021/03/01 09:57:56;;;;;;;20.08;14.77;;;22.50;60.90;;;;;;5050350;28;20079;-68
2021/03/01 10:00:28;;;;;;;19.50;14.75;;;22.30;62.00;;;;;;5050326;28;20475;-69
2021/03/01 10:03:02;;;;;;;20.50;14.35;;;22.40;60.60;;;;;;5048295;28;20110;-70
2021/03/01 10:05:31;;;;;;;20.02;14.57;;;22.40;59.50;;;;;;5045858;28;20433;-69
2021/03/01 10:08:00;;;;;;;19.52;14.00;;;22.70;58.10;;;;;;5045409;28;20048;-70
2021/03/01 10:10:36;;;;;;;23.30;15.10;;;23.10;57.90;;;;;;5045721;28;20496;-70
2021/03/01 10:13:04;;;;;;;19.35;13.98;;;22.90;57.00;;;;;;5042444;28;20531;-70
2021/03/01 10:15:41;;;;;;;19.40;14.35;;;22.50;58.10;;;;;;5044968;28;20052;-70
2021/03/01 10:18:12;;;;;;;19.20;14.05;;;23.20;57.00;;;;;;5045926;28;20048;-70
2021/03/01 10:20:54;;;;;;;20.60;13.25;;;23.30;55.90;;;;;;5045769;28;20650;-70
2021/03/01 10:23:42;;;;;;;19.20;13.20;;;23.80;56.10;;;;;;5045157;28;20377;-70
2021/03/01 10:26:16;;;;;;;17.95;12.68;;;23.70;55.60;;;;;;5041570;28;20133;-70
2021/03/01 10:28:46;;;;;;;19.70;13.40;;;24.10;55.10;;;;;;5046931;28;20059;-70
2021/03/01 10:31:14;;;;;;;17.70;13.13;;;24.40;54.50;;;;;;5046173;28;20079;-70
2021/03/01 10:33:55;;;;;;;17.42;12.82;;;24.40;54.20;;;;;;5046992;28;20063;-70
2021/03/01 10:36:22;;;;;;;17.67;13.52;;;24.50;54.00;;;;;;5049290;28;20049;-72
2021/03/01 10:39:01;;;;;;;16.45;12.07;;;24.50;54.20;;;;;;5049351;28;20075;-70
2021/03/01 10:41:31;;;;;;;17.08;12.90;;;25.40;52.80;;;;;;5041991;28;20397;-69
2021/03/01 10:44:01;;;;;;;18.77;12.75;;;25.20;52.70;;;;;;5045323;28;20048;-69
2021/03/01 10:46:39;;;;;;;17.67;12.70;;;25.30;52.40;;;;;;5048600;28;20048;-69
2021/03/01 10:49:25;;;;;;;18.27;12.75;;;25.10;51.60;;;;;;5046686;28;20098;-70
2021/03/01 10:51:53;;;;;;;17.88;12.90;;;25.40;51.60;;;;;;5046151;28;20056;-69
2021/03/01 10:54:20;;;;;;;18.42;12.82;;;25.60;51.10;;;;;;5045410;28;20048;-69
2021/03/01 10:56:48;;;;;;;15.75;12.18;;;25.60;50.80;;;;;;5045925;28;20067;-69
2021/03/01 10:59:15;;;;;;;20.20;12.68;;;25.70;51.10;;;;;;5044803;28;20098;-69
2021/03/01 11:01:43;;;;;;;17.63;11.40;;;25.50;50.60;;;;;;5044931;28;20063;-69
2021/03/01 11:04:12;;;;;;;19.88;12.02;;;25.80;50.80;;;;;;5044027;28;20442;-69
2021/03/01 11:06:39;;;;;;;15.82;11.05;;;25.80;50.30;;;;;;5046587;28;20048;-69
2021/03/01 11:09:08;;;;;;;17.42;12.38;;;26.00;49.90;;;;;;5046960;28;20099;-69
2021/03/01 11:11:35;;;;;;;17.83;12.25;;;26.20;49.90;;;;;;5047287;28;20048;-69
2021/03/01 11:14:02;;;;;;;16.02;11.05;;;25.10;50.10;;;;;;5043907;28;20505;-69
2021/03/01 11:16:29;;;;;;;21.50;11.43;;;25.50;50.20;;;;;;5046314;28;20047;-69
2021/03/01 11:18:56;;;;;;;17.08;11.13;;;25.60;51.00;;;;;;5047329;28;20048;-69
2021/03/01 11:21:25;;;;;;;19.13;12.02;;;26.30;49.30;;;;;;5045288;28;20044;-69
2021/03/01 11:23:52;;;;;;;18.27;12.07;;;26.50;49.90;;;;;;5046737;28;20040;-69
2021/03/01 11:26:19;;;;;;;15.38;10.98;;;26.60;49.20;;;;;;5047803;28;20044;-71
2021/03/01 11:28:46;;;;;;;16.48;11.98;;;26.30;49.60;;;;;;5047961;28;20064;-69
2021/03/01 11:31:15;;;;;;;17.23;10.93;;;26.20;49.10;;;;;;5047422;28;20102;-69
2021/03/01 11:33:42;;;;;;;15.65;11.05;;;27.30;48.60;;;;;;5046205;28;20416;-69
2021/03/01 11:36:09;;;;;;;15.98;11.57;;;27.60;48.20;;;;;;5046989;28;20063;-69
2021/03/01 11:38:36;;;;;;;14.50;10.73;;;27.00;48.60;;;;;;5047199;28;20052;-69
2021/03/01 11:41:03;;;;;;;19.98;10.73;;;27.30;48.10;;;;;;5046732;28;20105;-70
2021/03/01 11:43:30;;;;;;;16.05;10.15;;;27.40;47.70;;;;;;5046394;28;20163;-69
2021/03/01 11:45:56;;;;;;;16.27;10.40;;;27.50;47.70;;;;;;5048184;28;20048;-69
2021/03/01 11:48:24;;;;;;;14.45;9.68;;;27.70;47.20;;;;;;5048298;28;20457;-69
2021/03/01 11:50:51;;;;;;;14.90;10.35;;;27.10;47.90;;;;;;5050214;28;20055;-69
2021/03/01 11:53:18;;;;;;;15.05;10.27;;;27.50;47.30;;;;;;5045414;28;20067;-69
2021/03/01 11:55:46;;;;;;;15.27;9.82;;;27.30;47.30;;;;;;5047150;28;20493;-69
2021/03/01 11:58:13;;;;;;;15.00;9.93;;;27.40;47.20;;;;;;5047780;28;21036;-69
2021/03/01 12:00:42;;;;;;;15.13;10.10;;;27.10;47.30;;;;;;5048655;28;20102;-69
2021/03/01 12:03:09;;;;;;;13.93;9.60;;;27.20;47.80;;;;;;5046865;28;20052;-69
2021/03/01 12:05:39;;;;;;;13.57;9.20;;;27.40;47.10;;;;;;5047585;28;20052;-69
2021/03/01 12:08:07;;;;;;;15.27;10.00;;;27.40;47.30;;;;;;5047297;28;20072;-69
2021/03/01 12:10:35;;;;;;;14.65;8.90;;;27.50;46.90;;;;;;5048314;28;20098;-69
2021/03/01 12:13:02;;;;;;;16.20;9.60;;;28.00;46.90;;;;;;5050378;28;20056;-69
2021/03/01 12:15:28;;;;;;;16.17;9.55;;;27.90;46.40;;;;;;5051477;28;20460;-69
2021/03/01 12:17:55;;;;;;;15.48;9.88;;;27.10;46.90;;;;;;5047632;28;20052;-71
2021/03/01 12:20:22;;;;;;;20.25;9.27;;;26.90;47.40;;;;;;5037839;28;20044;-69
2021/03/01 12:22:49;;;;;;;13.70;9.27;;;26.60;46.80;;;;;;5047785;28;20048;-69
2021/03/01 12:25:17;;;;;;;14.73;9.57;;;26.40;47.00;;;;;;5051000;28;20087;-69
2021/03/01 12:27:43;;;;;;;14.30;9.00;;;26.10;46.90;;;;;;5049959;28;20059;-69
2021/03/01 12:30:10;;;;;;;13.93;8.60;;;27.10;47.50;;;;;;5049647;28;20157;-69
2021/03/01 12:32:37;;;;;;;14.82;8.80;;;27.40;46.90;;;;;;5048238;28;20059;-69
2021/03/01 12:35:05;;;;;;;16.77;8.80;;;27.80;46.30;;;;;;5047787;28;20052;-69
2021/03/01 12:37:32;;;;;;;12.50;8.45;;;27.80;46.10;;;;;;5048210;28;20041;-69
2021/03/01 12:40:00;;;;;;;13.57;8.63;;;27.80;46.10;;;;;;5049353;28;20575;-71
2021/03/01 12:42:26;;;;;;;14.40;9.02;;;28.30;45.40;;;;;;5046458;28;20257;-70
2021/03/01 12:44:53;;;;;;;14.63;8.50;;;28.10;45.00;;;;;;5041783;28;20509;-70
2021/03/01 12:47:20;;;;;;;12.73;8.15;;;27.80;45.80;;;;;;5050494;28;20098;-70